createdAt,value
2018-06-27T00:01:25.017Z,100434.26
2018-06-27T00:03:52.739Z,100429.95
2018-06-27T00:06:20.355Z,100427.43
2018-06-27T00:08:48.072Z,100444.42
2018-06-27T00:11:15.751Z,100440.68
2018-06-27T00:13:44.483Z,100434.56
2018-06-27T00:16:12.147Z,100435.67
2018-06-27T00:18:39.824Z,100442.20
2018-06-27T00:21:07.626Z,100439.30
2018-06-27T00:23:35.381Z,100442.27
2018-06-27T00:26:03.046Z,100437.11
2018-06-27T00:28:30.860Z,100438.62
2018-06-27T00:30:58.509Z,100437.67
2018-06-27T00:33:26.162Z,100446.60
2018-06-27T00:35:53.863Z,100448.95
2018-06-27T00:38:21.588Z,100455.98
2018-06-27T00:40:49.248Z,100451.85
2018-06-27T00:43:16.907Z,100452.07
2018-06-27T00:45:44.544Z,100453.72
2018-06-27T00:48:12.218Z,100456.59
2018-06-27T00:50:40.260Z,100453.95
2018-06-27T00:53:07.933Z,100459.59
2018-06-27T00:55:36.343Z,100463.78
2018-06-27T00:58:04.245Z,100463.80
2018-06-27T01:00:31.979Z,100463.24
2018-06-27T01:02:59.607Z,100463.90
2018-06-27T01:05:27.277Z,100457.63
2018-06-27T01:07:55.003Z,100459.43
2018-06-27T01:10:22.638Z,100456.20
2018-06-27T01:12:50.228Z,100460.64
2018-06-27T01:15:17.850Z,100468.61
2018-06-27T01:17:54.155Z,100461.70
2018-06-27T01:20:21.841Z,100463.77
2018-06-27T01:22:49.749Z,100465.05
2018-06-27T01:25:17.655Z,100468.09
2018-06-27T01:27:45.591Z,100479.05
2018-06-27T01:30:13.281Z,100477.91
2018-06-27T01:32:40.908Z,100486.27
2018-06-27T01:35:08.607Z,100478.99
2018-06-27T01:37:36.307Z,100482.55
2018-06-27T01:40:03.959Z,100484.87
2018-06-27T01:42:31.648Z,100492.11
2018-06-27T01:45:06.037Z,100490.05
2018-06-27T01:47:33.653Z,100500.10
2018-06-27T01:50:01.326Z,100498.16
2018-06-27T01:52:29.059Z,100504.25
2018-06-27T01:54:56.658Z,100494.64
2018-06-27T01:57:24.235Z,100492.41
2018-06-27T01:59:51.849Z,100497.09
2018-06-27T02:04:46.783Z,100499.73
2018-06-27T02:07:14.386Z,100499.50
2018-06-27T02:09:42.048Z,100505.02
2018-06-27T02:12:09.678Z,100504.13
2018-06-27T02:14:37.354Z,100501.06
2018-06-27T02:17:05.075Z,100497.89
2018-06-27T02:19:32.704Z,100508.70
2018-06-27T02:22:00.304Z,100505.79
2018-06-27T02:24:27.946Z,100506.65
2018-06-27T02:26:55.659Z,100502.59
2018-06-27T02:29:23.281Z,100507.00
2018-06-27T02:31:50.848Z,100501.77
2018-06-27T02:34:19.331Z,100508.33
2018-06-27T02:36:46.999Z,100498.42
2018-06-27T02:39:14.718Z,100498.63
2018-06-27T02:41:42.384Z,100491.18
2018-06-27T02:44:10.644Z,100492.83
2018-06-27T02:46:38.307Z,100504.86
2018-06-27T02:49:06.431Z,100503.34
2018-06-27T02:51:34.162Z,100509.80
2018-06-27T02:54:02.116Z,100511.73
2018-06-27T02:56:29.725Z,100504.09
2018-06-27T02:58:57.438Z,100504.14
2018-06-27T03:01:25.207Z,100512.59
2018-06-27T03:03:53.488Z,100512.48
2018-06-27T03:06:21.141Z,100508.93
2018-06-27T03:08:48.825Z,100517.88
2018-06-27T03:11:16.489Z,100516.72
2018-06-27T03:13:44.094Z,100516.59
2018-06-27T03:16:11.811Z,100516.64
2018-06-27T03:18:49.134Z,100518.78
2018-06-27T03:21:16.882Z,100516.06
2018-06-27T03:23:44.641Z,100518.39
2018-06-27T03:26:12.310Z,100520.45
2018-06-27T03:28:39.990Z,100519.80
2018-06-27T03:31:07.650Z,100521.23
2018-06-27T03:33:35.316Z,100520.12
2018-06-27T03:36:02.986Z,100523.42
2018-06-27T03:38:30.665Z,100520.27
2018-06-27T03:40:58.381Z,100527.05
2018-06-27T03:43:26.145Z,100528.86
2018-06-27T03:45:53.842Z,100533.59
2018-06-27T03:48:21.531Z,100539.27
2018-06-27T03:50:49.141Z,100529.91
2018-06-27T03:53:16.823Z,100534.13
2018-06-27T03:55:44.425Z,100544.66
2018-06-27T03:58:12.113Z,100545.45
2018-06-27T04:00:39.775Z,100551.69
2018-06-27T04:03:08.429Z,100554.59
2018-06-27T04:05:36.075Z,100551.56
2018-06-27T04:08:03.785Z,100554.94
2018-06-27T04:10:31.485Z,100552.41
2018-06-27T04:12:59.267Z,100551.65
2018-06-27T04:15:26.851Z,100556.83
2018-06-27T04:17:54.703Z,100558.06
2018-06-27T04:20:22.349Z,100557.84
2018-06-27T04:22:50.005Z,100556.91
2018-06-27T04:25:17.716Z,100560.88
2018-06-27T04:27:45.390Z,100558.44
2018-06-27T04:30:13.054Z,100562.99
2018-06-27T04:32:40.746Z,100563.94
2018-06-27T04:35:08.528Z,100567.18
2018-06-27T04:37:36.172Z,100573.78
2018-06-27T04:40:03.901Z,100565.39
2018-06-27T04:42:31.526Z,100565.42
2018-06-27T04:44:59.188Z,100566.95
2018-06-27T04:47:26.822Z,100569.98
2018-06-27T04:49:54.473Z,100563.44
2018-06-27T04:52:22.173Z,100566.27
2018-06-27T04:54:49.844Z,100566.95
2018-06-27T04:57:17.479Z,100573.16
2018-06-27T04:59:45.187Z,100572.20
2018-06-27T05:02:13.456Z,100572.95
2018-06-27T05:04:41.088Z,100568.33
2018-06-27T05:07:08.757Z,100570.70
2018-06-27T05:09:36.407Z,100568.68
2018-06-27T05:12:04.116Z,100575.05
2018-06-27T05:14:31.722Z,100574.62
2018-06-27T05:16:59.377Z,100574.41
2018-06-27T05:19:26.998Z,100581.46
2018-06-27T05:21:54.693Z,100577.66
2018-06-27T05:24:22.249Z,100581.88
2018-06-27T05:26:49.994Z,100581.36
2018-06-27T05:29:17.622Z,100591.91
2018-06-27T05:31:49.848Z,100591.72
2018-06-27T05:34:17.433Z,100593.23
2018-06-27T05:36:45.923Z,100599.50
2018-06-27T05:39:13.538Z,100602.55
2018-06-27T05:41:41.264Z,100607.59
2018-06-27T05:44:08.868Z,100618.39
2018-06-27T05:46:36.462Z,100613.97
2018-06-27T05:49:04.153Z,100611.81
2018-06-27T05:51:31.734Z,100609.80
2018-06-27T05:53:59.346Z,100613.80
2018-06-27T05:56:26.946Z,100605.44
2018-06-27T05:58:54.634Z,100608.16
2018-06-27T06:01:22.285Z,100609.80
2018-06-27T06:03:49.920Z,100610.92
2018-06-27T06:06:17.580Z,100617.06
2018-06-27T06:08:45.242Z,100625.23
2018-06-27T06:11:12.982Z,100617.95
2018-06-27T06:13:40.666Z,100624.63
2018-06-27T06:16:08.273Z,100625.12
2018-06-27T06:18:36.037Z,100624.80
2018-06-27T06:21:03.648Z,100621.13
2018-06-27T06:23:31.457Z,100628.66
2018-06-27T06:25:59.006Z,100627.16
2018-06-27T06:28:26.641Z,100625.49
2018-06-27T06:30:54.217Z,100629.11
2018-06-27T06:33:21.807Z,100626.29
2018-06-27T06:35:49.421Z,100629.32
2018-06-27T06:38:16.986Z,100622.97
2018-06-27T06:40:44.739Z,100621.98
2018-06-27T06:43:12.314Z,100621.46
2018-06-27T06:45:39.967Z,100623.30
2018-06-27T06:48:07.752Z,100627.34
2018-06-27T06:50:35.400Z,100630.44
2018-06-27T06:53:03.036Z,100636.05
2018-06-27T06:55:31.110Z,100637.16
2018-06-27T06:57:58.770Z,100637.57
2018-06-27T07:00:26.476Z,100642.05
2018-06-27T07:02:54.110Z,100645.67
2018-06-27T07:05:21.702Z,100639.91
2018-06-27T07:07:49.437Z,100639.61
2018-06-27T07:10:17.067Z,100644.62
2018-06-27T07:12:44.709Z,100645.83
2018-06-27T07:15:12.509Z,100644.19
2018-06-27T07:17:40.092Z,100638.75
2018-06-27T07:20:07.810Z,100640.41
2018-06-27T07:22:35.484Z,100640.45
2018-06-27T07:25:03.161Z,100636.91
2018-06-27T07:27:30.843Z,100638.91
2018-06-27T07:29:58.551Z,100639.36
2018-06-27T07:32:26.138Z,100636.54
2018-06-27T07:34:53.814Z,100633.48
2018-06-27T07:37:21.577Z,100634.02
2018-06-27T07:39:49.286Z,100633.13
2018-06-27T07:42:17.059Z,100636.69
2018-06-27T07:44:44.761Z,100636.48
2018-06-27T07:47:12.467Z,100636.03
2018-06-27T07:49:40.152Z,100640.83
2018-06-27T07:52:07.971Z,100645.03
2018-06-27T07:54:39.307Z,100643.13
2018-06-27T07:57:08.096Z,100656.80
2018-06-27T07:59:35.854Z,100640.87
2018-06-27T08:02:04.637Z,100649.11
2018-06-27T08:04:32.247Z,100646.25
2018-06-27T08:06:59.975Z,100644.59
2018-06-27T08:09:27.551Z,100645.41
2018-06-27T08:11:55.123Z,100646.02
2018-06-27T08:14:22.805Z,100643.21
2018-06-27T08:16:50.745Z,100643.47
2018-06-27T08:19:18.398Z,100650.95
2018-06-27T08:21:46.112Z,100647.17
2018-06-27T08:24:13.866Z,100647.90
2018-06-27T08:26:41.503Z,100646.61
2018-06-27T08:29:09.290Z,100645.59
2018-06-27T08:31:37.025Z,100648.56
2018-06-27T08:34:04.872Z,100652.31
2018-06-27T08:36:32.651Z,100646.55
2018-06-27T08:39:00.283Z,100647.87
2018-06-27T08:41:27.925Z,100651.22
2018-06-27T08:43:55.613Z,100649.68
2018-06-27T08:46:23.267Z,100647.52
2018-06-27T08:48:50.950Z,100653.73
2018-06-27T08:51:18.617Z,100657.34
2018-06-27T08:53:46.259Z,100658.81
2018-06-27T08:56:13.953Z,100646.43
2018-06-27T08:58:41.707Z,100660.24
2018-06-27T09:01:09.395Z,100652.45
2018-06-27T09:03:37.025Z,100657.87
2018-06-27T09:06:04.768Z,100655.55
2018-06-27T09:08:32.435Z,100653.86
2018-06-27T09:11:00.091Z,100650.44
2018-06-27T09:13:27.747Z,100658.42
2018-06-27T09:15:55.491Z,100656.75
2018-06-27T09:18:23.383Z,100649.44
2018-06-27T09:20:51.158Z,100647.16
2018-06-27T09:23:18.782Z,100659.86
2018-06-27T09:25:46.521Z,100663.63
2018-06-27T09:28:14.207Z,100660.37
2018-06-27T09:30:41.802Z,100664.09
2018-06-27T09:33:09.558Z,100675.60
2018-06-27T09:35:37.267Z,100665.05
2018-06-27T09:38:04.996Z,100658.98
2018-06-27T09:40:32.645Z,100668.58
2018-06-27T09:43:00.412Z,100656.47
2018-06-27T09:45:28.198Z,100657.59
2018-06-27T09:47:55.941Z,100656.38
2018-06-27T09:50:23.675Z,100652.72
2018-06-27T09:52:51.373Z,100648.70
2018-06-27T09:55:19.086Z,100651.04
2018-06-27T09:57:46.752Z,100657.84
2018-06-27T10:00:20.090Z,100644.77
2018-06-27T10:02:47.694Z,100647.16
2018-06-27T10:05:15.837Z,100644.22
2018-06-27T10:07:43.543Z,100642.30
2018-06-27T10:10:11.182Z,100639.55
2018-06-27T10:12:38.822Z,100641.28
2018-06-27T10:15:13.264Z,100644.83
2018-06-27T10:17:41.010Z,100632.02
2018-06-27T10:20:08.732Z,100641.06
2018-06-27T10:22:36.451Z,100641.66
2018-06-27T10:25:04.124Z,100645.17
2018-06-27T10:27:31.820Z,100644.90
2018-06-27T10:29:59.581Z,100640.13
2018-06-27T10:32:27.422Z,100642.30
2018-06-27T10:34:55.155Z,100637.13
2018-06-27T10:37:22.803Z,100630.90
2018-06-27T10:39:50.486Z,100631.83
2018-06-27T10:42:18.380Z,100630.78
2018-06-27T10:44:46.143Z,100630.23
2018-06-27T10:47:13.790Z,100636.14
2018-06-27T10:49:41.443Z,100641.05
2018-06-27T10:52:09.143Z,100638.28
2018-06-27T10:54:41.348Z,100636.98
2018-06-27T10:57:08.980Z,100635.48
2018-06-27T10:59:36.655Z,100642.34
2018-06-27T11:02:04.330Z,100639.80
2018-06-27T11:04:32.078Z,100634.36
2018-06-27T11:06:59.790Z,100635.78
2018-06-27T11:09:27.580Z,100643.83
2018-06-27T11:11:55.228Z,100640.82
2018-06-27T11:14:22.886Z,100645.60
2018-06-27T11:16:50.521Z,100645.55
2018-06-27T11:19:18.249Z,100643.98
2018-06-27T11:21:45.985Z,100631.06
2018-06-27T11:24:13.585Z,100636.30
2018-06-27T11:26:41.247Z,100629.77
2018-06-27T11:29:08.853Z,100631.40
2018-06-27T11:31:36.592Z,100639.19
2018-06-27T11:34:04.327Z,100645.02
2018-06-27T11:36:32.252Z,100640.34
2018-06-27T11:38:59.933Z,100635.94
2018-06-27T11:41:27.563Z,100639.62
2018-06-27T11:43:55.210Z,100640.91
2018-06-27T11:46:22.969Z,100637.20
2018-06-27T11:48:50.651Z,100622.67
2018-06-27T11:51:18.318Z,100625.64
2018-06-27T11:53:45.986Z,100616.92
2018-06-27T11:56:13.716Z,100626.02
2018-06-27T11:58:41.362Z,100629.64
2018-06-27T12:01:09.056Z,100625.38
2018-06-27T12:03:36.774Z,100624.56
2018-06-27T12:06:04.494Z,100620.03
2018-06-27T12:08:32.278Z,100626.77
2018-06-27T12:10:59.858Z,100626.30
2018-06-27T12:13:27.560Z,100617.45
2018-06-27T12:15:55.202Z,100613.18
2018-06-27T12:18:22.879Z,100613.24
2018-06-27T12:20:50.572Z,100611.80
2018-06-27T12:23:18.185Z,100614.23
2018-06-27T12:25:45.867Z,100621.17
2018-06-27T12:28:13.643Z,100624.26
2018-06-27T12:30:41.537Z,100618.89
2018-06-27T12:33:09.302Z,100609.33
2018-06-27T12:35:36.956Z,100615.26
2018-06-27T12:38:06.272Z,100614.75
2018-06-27T12:40:33.957Z,100616.67
2018-06-27T12:43:01.703Z,100622.70
2018-06-27T12:48:03.899Z,100634.06
2018-06-27T12:50:31.535Z,100634.03
2018-06-27T12:52:59.182Z,100633.73
2018-06-27T12:55:26.824Z,100637.05
2018-06-27T12:57:54.491Z,100627.16
2018-06-27T13:00:22.160Z,100633.11
2018-06-27T13:02:49.919Z,100630.00
2018-06-27T13:05:17.641Z,100629.27
2018-06-27T13:07:45.251Z,100621.82
2018-06-27T13:10:12.873Z,100629.11
2018-06-27T13:12:40.451Z,100619.16
2018-06-27T13:15:08.042Z,100619.66
2018-06-27T13:17:35.701Z,100610.35
2018-06-27T13:20:04.127Z,100620.27
2018-06-27T13:22:31.973Z,100620.59
2018-06-27T13:24:59.719Z,100611.29
2018-06-27T13:27:28.059Z,100599.56
2018-06-27T13:29:55.711Z,100606.89
2018-06-27T13:32:23.422Z,100604.32
2018-06-27T13:34:51.884Z,100599.98
2018-06-27T13:37:20.436Z,100596.22
2018-06-27T13:39:48.066Z,100592.53
2018-06-27T13:42:15.884Z,100591.32
2018-06-27T13:44:43.502Z,100580.75
2018-06-27T13:47:11.516Z,100591.11
2018-06-27T13:49:39.294Z,100587.01
2018-06-27T13:55:08.420Z,100599.37
2018-06-27T13:57:50.741Z,100595.94
2018-06-27T14:00:27.899Z,100593.30
2018-06-27T14:02:55.590Z,100594.09
2018-06-27T14:05:23.260Z,100581.62
2018-06-27T14:07:50.890Z,100576.67
2018-06-27T14:10:18.602Z,100576.17
2018-06-27T14:12:46.294Z,100572.33
2018-06-27T14:15:13.960Z,100578.52
2018-06-27T14:17:41.628Z,100573.06
2018-06-27T14:20:09.264Z,100572.36
2018-06-27T14:22:36.885Z,100563.38
2018-06-27T14:25:04.558Z,100569.91
2018-06-27T14:27:32.207Z,100568.95
2018-06-27T14:29:59.913Z,100573.39
2018-06-27T14:32:27.533Z,100573.07
2018-06-27T14:34:55.223Z,100558.52
2018-06-27T14:37:22.896Z,100556.77
2018-06-27T14:39:50.525Z,100560.40
2018-06-27T14:42:18.153Z,100563.34
2018-06-27T14:44:45.887Z,100554.83
2018-06-27T14:47:13.534Z,100556.17
2018-06-27T14:49:41.194Z,100549.84
2018-06-27T14:52:08.834Z,100545.95
2018-06-27T14:54:36.488Z,100546.41
2018-06-27T14:57:04.154Z,100555.13
2018-06-27T14:59:31.861Z,100559.72
2018-06-27T15:01:59.506Z,100549.45
2018-06-27T15:04:27.267Z,100553.19
2018-06-27T15:06:54.972Z,100546.39
2018-06-27T15:09:22.722Z,100540.36
2018-06-27T15:11:50.410Z,100538.21
2018-06-27T15:14:18.186Z,100542.23
2018-06-27T15:16:45.904Z,100544.35
2018-06-27T15:19:14.724Z,100538.64
2018-06-27T15:21:42.704Z,100539.91
2018-06-27T15:24:10.364Z,100545.17
2018-06-27T15:26:38.080Z,100545.55
2018-06-27T15:29:05.685Z,100545.00
2018-06-27T15:31:33.349Z,100546.23
2018-06-27T15:34:01.005Z,100548.91
2018-06-27T15:36:28.639Z,100534.11
2018-06-27T15:38:56.263Z,100540.36
2018-06-27T15:41:23.893Z,100549.95
2018-06-27T15:43:51.525Z,100563.50
2018-06-27T15:46:19.411Z,100547.79
2018-06-27T15:48:47.431Z,100550.94
2018-06-27T15:51:15.273Z,100556.86
2018-06-27T15:53:43.055Z,100551.41
2018-06-27T15:56:10.777Z,100558.55
2018-06-27T15:58:38.607Z,100556.48
2018-06-27T16:01:06.696Z,100561.16
2018-06-27T16:03:34.879Z,100565.85
2018-06-27T16:06:02.693Z,100565.09
2018-06-27T16:08:30.349Z,100556.95
2018-06-27T16:10:58.097Z,100543.25
2018-06-27T16:13:25.849Z,100541.95
2018-06-27T16:15:53.538Z,100543.72
2018-06-27T16:18:21.276Z,100555.24
2018-06-27T16:20:48.931Z,100551.56
2018-06-27T16:23:16.526Z,100546.25
2018-06-27T16:25:44.182Z,100546.33
2018-06-27T16:28:11.908Z,100547.38
2018-06-27T16:30:39.595Z,100538.03
2018-06-27T16:33:07.384Z,100536.90
2018-06-27T16:35:35.038Z,100541.31
2018-06-27T16:38:02.759Z,100536.41
2018-06-27T16:40:30.365Z,100543.69
2018-06-27T16:42:57.962Z,100531.55
2018-06-27T16:45:26.677Z,100527.62
2018-06-27T16:47:54.417Z,100532.66
2018-06-27T16:50:22.097Z,100538.09
2018-06-27T16:52:49.744Z,100542.98
2018-06-27T16:55:17.586Z,100538.94
2018-06-27T16:57:45.239Z,100531.02
2018-06-27T17:00:13.044Z,100525.74
2018-06-27T17:02:40.674Z,100522.44
2018-06-27T17:05:08.417Z,100527.11
2018-06-27T17:07:36.187Z,100527.55
2018-06-27T17:10:04.465Z,100529.27
2018-06-27T17:12:32.139Z,100528.92
2018-06-27T17:14:59.892Z,100526.36
2018-06-27T17:17:27.486Z,100518.84
2018-06-27T17:19:55.404Z,100520.77
2018-06-27T17:22:23.012Z,100508.37
2018-06-27T17:24:50.840Z,100513.70
2018-06-27T17:27:18.507Z,100507.69
2018-06-27T17:29:46.220Z,100503.52
2018-06-27T17:32:13.964Z,100512.88
2018-06-27T17:34:41.800Z,100504.63
2018-06-27T17:37:09.475Z,100515.35
2018-06-27T17:39:37.195Z,100518.48
2018-06-27T17:42:04.880Z,100524.84
2018-06-27T17:44:33.077Z,100522.36
2018-06-27T17:47:00.746Z,100521.30
2018-06-27T17:49:28.311Z,100528.45
2018-06-27T17:51:55.935Z,100528.44
2018-06-27T17:54:23.575Z,100526.25
2018-06-27T17:56:51.263Z,100526.66
2018-06-27T17:59:18.897Z,100532.58
2018-06-27T18:01:46.630Z,100521.75
2018-06-27T18:04:14.302Z,100522.58
2018-06-27T18:06:42.143Z,100519.50
2018-06-27T18:09:09.974Z,100517.27
2018-06-27T18:11:38.622Z,100516.94
2018-06-27T18:14:06.461Z,100504.41
2018-06-27T18:16:34.527Z,100509.19
2018-06-27T18:19:03.264Z,100509.09
2018-06-27T18:21:31.654Z,100516.13
2018-06-27T18:23:59.469Z,100514.27
2018-06-27T18:26:27.400Z,100515.04
2018-06-27T18:28:55.069Z,100508.66
2018-06-27T18:31:22.859Z,100512.39
2018-06-27T18:33:50.653Z,100507.09
2018-06-27T18:36:18.385Z,100513.75
2018-06-27T18:38:46.162Z,100513.48
2018-06-27T18:41:13.853Z,100512.38
2018-06-27T18:43:41.547Z,100511.67
2018-06-27T18:46:09.239Z,100516.81
2018-06-27T18:48:37.229Z,100518.53
2018-06-27T18:51:05.138Z,100517.16
2018-06-27T18:53:32.878Z,100510.25
2018-06-27T18:56:00.636Z,100510.92
2018-06-27T18:58:28.651Z,100519.48
2018-06-27T19:00:56.442Z,100522.97
2018-06-27T19:03:24.346Z,100518.94
2018-06-27T19:05:52.014Z,100527.77
2018-06-27T19:08:19.671Z,100527.89
2018-06-27T19:10:47.490Z,100530.06
2018-06-27T19:13:15.225Z,100532.55
2018-06-27T19:15:42.996Z,100535.23
2018-06-27T19:18:10.750Z,100537.30
2018-06-27T19:20:38.441Z,100532.77
2018-06-27T19:23:06.182Z,100530.90
2018-06-27T19:25:33.925Z,100523.11
2018-06-27T19:28:01.569Z,100524.38
2018-06-27T19:30:29.355Z,100537.26
2018-06-27T19:32:57.035Z,100527.22
2018-06-27T19:35:24.896Z,100526.03
2018-06-27T19:37:52.637Z,100526.34
2018-06-27T19:40:20.291Z,100528.41
2018-06-27T19:42:47.948Z,100529.01
2018-06-27T19:45:15.655Z,100532.65
2018-06-27T19:47:43.382Z,100530.76
2018-06-27T19:50:11.089Z,100529.55
2018-06-27T19:52:38.791Z,100533.02
2018-06-27T19:55:06.770Z,100537.36
2018-06-27T19:57:34.484Z,100535.17
2018-06-27T20:00:02.318Z,100537.46
2018-06-27T20:02:30.145Z,100540.97
2018-06-27T20:04:57.880Z,100539.98
2018-06-27T20:07:25.670Z,100543.60
2018-06-27T20:09:53.313Z,100552.67
2018-06-27T20:12:21.325Z,100542.42
2018-06-27T20:14:48.975Z,100545.92
2018-06-27T20:17:16.621Z,100548.09
2018-06-27T20:19:44.425Z,100552.34
2018-06-27T20:22:12.239Z,100548.34
2018-06-27T20:24:39.912Z,100544.94
2018-06-27T20:27:07.599Z,100551.44
2018-06-27T20:29:35.197Z,100549.28
2018-06-27T20:32:02.923Z,100553.28
2018-06-27T20:34:30.639Z,100560.80
2018-06-27T20:36:58.465Z,100556.74
2018-06-27T20:39:26.951Z,100554.40
2018-06-27T20:41:54.651Z,100553.28
2018-06-27T20:44:22.323Z,100554.00
2018-06-27T20:46:50.094Z,100548.17
2018-06-27T20:49:17.911Z,100507.14
2018-06-27T20:51:45.708Z,100551.32
2018-06-27T20:54:13.396Z,100539.30
2018-06-27T20:56:41.090Z,100551.17
2018-06-27T20:59:08.817Z,100549.38
2018-06-27T21:01:36.598Z,100549.67
2018-06-27T21:04:04.324Z,100541.31
2018-06-27T21:06:32.010Z,100547.66
2018-06-27T21:08:59.686Z,100545.84
2018-06-27T21:11:27.349Z,100550.09
2018-06-27T21:13:55.060Z,100546.00
2018-06-27T21:16:22.841Z,100539.53
2018-06-27T21:18:50.545Z,100540.91
2018-06-27T21:21:18.283Z,100547.47
2018-06-27T21:23:45.869Z,100542.33
2018-06-27T21:26:13.479Z,100540.73
2018-06-27T21:28:41.189Z,100544.12
2018-06-27T21:31:08.783Z,100536.41
2018-06-27T21:33:36.465Z,100539.02
2018-06-27T21:36:04.088Z,100537.17
2018-06-27T21:38:31.731Z,100539.98
2018-06-27T21:40:59.366Z,100543.98
2018-06-27T21:43:27.076Z,100542.55
2018-06-27T21:45:54.660Z,100546.56
2018-06-27T21:48:22.314Z,100543.47
2018-06-27T21:50:49.988Z,100545.25
2018-06-27T21:53:17.610Z,100550.42
2018-06-27T21:55:45.272Z,100547.26
2018-06-27T21:58:13.170Z,100554.09
2018-06-27T22:00:40.802Z,100549.76
2018-06-27T22:03:08.472Z,100545.25
2018-06-27T22:05:36.156Z,100547.26
2018-06-27T22:08:03.800Z,100548.59
2018-06-27T22:10:31.486Z,100550.77
2018-06-27T22:12:59.139Z,100543.41
2018-06-27T22:15:26.780Z,100542.58
2018-06-27T22:17:54.376Z,100548.09
2018-06-27T22:20:21.945Z,100545.75
2018-06-27T22:22:49.629Z,100547.28
2018-06-27T22:25:17.235Z,100549.12
2018-06-27T22:27:44.855Z,100541.30
2018-06-27T22:30:12.557Z,100539.80
2018-06-27T22:32:40.209Z,100537.12
2018-06-27T22:35:07.802Z,100531.31
2018-06-27T22:37:35.508Z,100536.02
2018-06-27T22:40:03.197Z,100537.68
2018-06-27T22:42:30.874Z,100529.16
2018-06-27T22:44:58.484Z,100526.52
2018-06-27T22:47:26.114Z,100530.86
2018-06-27T22:49:53.797Z,100534.22
2018-06-27T22:52:21.466Z,100532.19
2018-06-27T22:54:49.062Z,100527.88
2018-06-27T22:57:16.719Z,100532.73
2018-06-27T22:59:44.533Z,100534.09
2018-06-27T23:02:12.261Z,100531.75
2018-06-27T23:04:40.037Z,100527.77
2018-06-27T23:07:07.817Z,100526.28
2018-06-27T23:09:35.533Z,100519.11
2018-06-27T23:12:03.216Z,100526.45
2018-06-27T23:14:30.810Z,100523.63
2018-06-27T23:16:58.445Z,100516.62
2018-06-27T23:19:26.145Z,100519.65
2018-06-27T23:21:53.708Z,100524.81
2018-06-27T23:24:21.371Z,100522.98
2018-06-27T23:26:49.127Z,100524.47
2018-06-27T23:29:16.749Z,100518.80
2018-06-27T23:31:44.409Z,100517.30
2018-06-27T23:34:12.035Z,100513.31
2018-06-27T23:36:39.733Z,100506.33
2018-06-27T23:39:10.016Z,100508.83
2018-06-27T23:41:37.652Z,100501.95
2018-06-27T23:44:05.370Z,100501.77
2018-06-27T23:46:33.085Z,100493.44
2018-06-27T23:49:00.702Z,100489.45
2018-06-27T23:51:28.375Z,100485.77
2018-06-27T23:53:56.071Z,100488.41
2018-06-27T23:56:24.244Z,100483.59
2018-06-27T23:58:51.864Z,100482.72
